Time;durP1;ratioP1;P1;durP2;ratioP2;P2;SDS_P1;SDS_P2;PMS_P1;PMS_P2;Temp;Humidity;BMP_temperature;BMP_pressure;BME280_temperature;BME280_humidity;BME280_pressure;Samples;Min_cycle;Max_cycle;Signal;HPM_P1;HPM_P2
2021/12/11 00:01:05;;;;;;;;;5.50;2.25;;;;;7.31;65.35;100807.47;5013834;28;45476;-74
2021/12/11 00:03:38;;;;;;;;;8.00;5.75;;;;;7.31;65.13;100802.19;5014163;28;45492;-73
2021/12/11 00:06:09;;;;;;;;;5.00;5.00;;;;;7.33;65.40;100810.09;5035362;28;45515;-73
2021/12/11 00:08:35;;;;;;;;;7.00;6.00;;;;;7.33;65.13;100812.75;5018057;28;47038;-73
2021/12/11 00:11:13;;;;;;;;;7.75;5.50;;;;;7.33;65.32;100820.63;5018202;28;45392;-74
2021/12/11 00:13:40;;;;;;;;;9.00;5.75;;;;;7.31;65.43;100824.97;5003026;28;45533;-74
2021/12/11 00:16:07;;;;;;;;;5.50;3.00;;;;;7.25;65.33;100827.44;5005109;28;45602;-73
2021/12/11 00:18:32;;;;;;;;;7.00;6.00;;;;;7.27;65.24;100826.59;4999205;28;46760;-74
2021/12/11 00:21:08;;;;;;;;;9.50;5.50;;;;;7.27;65.31;100833.59;4999093;28;45510;-74
2021/12/11 00:23:56;;;;;;;;;10.50;6.00;;;;;7.29;65.19;100848.53;4990481;28;45416;-73
2021/12/11 00:26:23;;;;;;;;;6.75;4.50;;;;;7.29;65.41;100850.28;5023128;28;46223;-73
2021/12/11 00:28:50;;;;;;;;;8.25;5.25;;;;;7.29;65.34;100847.66;5006130;28;47586;-74
2021/12/11 00:31:15;;;;;;;;;8.25;6.75;;;;;7.28;65.28;100849.38;5001369;28;45654;-74
2021/12/11 00:33:41;;;;;;;;;9.50;7.00;;;;;7.25;65.36;100851.97;5016689;28;45372;-73
2021/12/11 00:36:11;;;;;;;;;9.25;6.00;;;;;7.30;65.52;100870.47;5013020;28;45293;-74
2021/12/11 00:38:37;;;;;;;;;9.50;6.00;;;;;7.26;65.45;100874.75;5029017;28;45814;-73
2021/12/11 00:41:04;;;;;;;;;10.75;7.50;;;;;7.28;65.55;100875.66;5017145;28;45597;-74
2021/12/11 00:43:33;;;;;;;;;6.75;6.75;;;;;7.23;65.25;100877.28;5022995;28;45190;-73
2021/12/11 00:45:59;;;;;;;;;11.75;6.00;;;;;7.26;65.13;100889.59;4985636;28;45556;-73
2021/12/11 00:48:26;;;;;;;;;4.50;4.50;;;;;7.20;65.83;100885.09;5007908;28;61964;-74
2021/12/11 00:50:56;;;;;;;;;10.25;4.50;;;;;7.26;65.57;100903.63;5020561;28;45527;-73
2021/12/11 00:53:22;;;;;;;;;9.50;5.75;;;;;7.27;65.50;100899.25;5017015;28;45729;-74
2021/12/11 00:55:51;;;;;;;;;6.50;5.50;;;;;7.22;65.41;100895.63;5003167;28;45491;-73
2021/12/11 00:58:17;;;;;;;;;11.50;5.25;;;;;7.11;65.69;100887.47;5025065;28;46122;-74
2021/12/11 01:00:48;;;;;;;;;6.00;4.50;;;;;7.23;65.86;100903.53;5015709;28;45536;-73
2021/12/11 01:03:16;;;;;;;;;6.25;5.25;;;;;7.23;65.56;100906.16;5015097;28;45355;-73
2021/12/11 01:05:43;;;;;;;;;7.50;5.00;;;;;7.22;65.42;100911.38;5016039;28;45599;-73
2021/12/11 01:08:23;;;;;;;;;6.50;4.00;;;;;7.20;65.64;100908.72;5033913;28;47112;-73
2021/12/11 01:10:49;;;;;;;;;5.25;4.00;;;;;7.22;65.57;100924.50;5018653;28;45923;-73
2021/12/11 01:13:18;;;;;;;;;7.00;5.75;;;;;7.11;65.89;100902.34;5017005;28;45587;-73
2021/12/11 01:15:53;;;;;;;;;3.50;3.50;;;;;7.17;65.60;100923.50;5017969;28;45532;-74
2021/12/11 01:21:01;;;;;;;;;6.00;6.00;;;;;7.12;65.82;100933.00;5019265;28;45515;-74
2021/12/11 01:23:46;;;;;;;;;9.00;5.00;;;;;7.15;65.52;100951.47;5009057;28;45470;-74
2021/12/11 01:26:15;;;;;;;;;11.25;5.00;;;;;7.04;65.65;100936.31;5021458;28;45508;-74
2021/12/11 01:28:40;;;;;;;;;2.75;2.75;;;;;7.11;65.72;100952.22;4979236;28;46581;-74
2021/12/11 01:31:09;;;;;;;;;4.50;3.00;;;;;7.01;65.86;100932.72;4998200;28;45546;-74
2021/12/11 01:33:35;;;;;;;;;5.00;2.25;;;;;7.07;65.98;100953.88;5013569;28;45513;-73
2021/12/11 01:36:00;;;;;;;;;3.00;3.00;;;;;7.06;65.91;100958.25;5008059;28;45182;-73
2021/12/11 01:38:27;;;;;;;;;3.00;2.00;;;;;7.05;65.71;100971.34;4997238;28;45886;-73
2021/12/11 01:40:56;;;;;;;;;5.00;3.00;;;;;7.08;65.83;100971.41;4981790;28;45210;-73
2021/12/11 01:43:23;;;;;;;;;5.25;3.00;;;;;7.05;65.87;100979.22;5004423;28;45476;-73
2021/12/11 01:45:49;;;;;;;;;6.50;5.00;;;;;7.04;66.02;100983.56;5014863;28;45483;-73
2021/12/11 01:48:17;;;;;;;;;3.00;2.00;;;;;7.03;65.92;100989.69;5001416;28;47581;-73
2021/12/11 01:50:45;;;;;;;;;8.50;3.00;;;;;6.99;65.93;100990.44;4987542;28;45378;-73
2021/12/11 01:53:17;;;;;;;;;11.50;2.00;;;;;7.03;66.10;101002.81;5005221;28;45290;-73
2021/12/11 01:55:56;;;;;;;;;11.75;5.75;;;;;6.93;66.06;100977.13;4999189;28;45829;-73
2021/12/11 01:58:50;;;;;;;;;3.50;2.75;;;;;7.03;66.26;100994.94;5006030;28;46565;-73
2021/12/11 02:01:31;;;;;;;;;10.00;3.50;;;;;6.97;66.20;100986.84;4979537;28;45570;-74
2021/12/11 02:03:57;;;;;;;;;9.25;5.00;;;;;7.03;66.26;101012.38;5008421;28;45487;-73
2021/12/11 02:06:27;;;;;;;;;5.00;5.00;;;;;7.02;66.24;101005.38;5004505;28;45643;-74
2021/12/11 02:08:52;;;;;;;;;6.75;2.75;;;;;7.01;66.29;100998.34;4998606;28;46615;-74
2021/12/11 02:11:21;;;;;;;;;4.25;1.25;;;;;7.04;66.13;101016.81;4999297;28;45389;-74
2021/12/11 02:13:54;;;;;;;;;10.75;6.00;;;;;7.03;66.16;101026.44;5000024;28;45369;-73
2021/12/11 02:16:28;;;;;;;;;7.75;5.25;;;;;7.01;66.27;101017.59;4982057;28;45566;-74
2021/12/11 02:18:59;;;;;;;;;9.00;5.00;;;;;6.97;66.34;101013.09;4998678;28;46651;-74
2021/12/11 02:21:30;;;;;;;;;11.00;6.75;;;;;6.98;66.29;101027.16;4998338;28;45466;-73
2021/12/11 02:24:04;;;;;;;;;10.25;5.75;;;;;6.89;66.25;101022.50;4999185;28;45487;-74
2021/12/11 02:26:32;;;;;;;;;8.75;6.00;;;;;6.92;66.39;101043.59;4981712;28;45574;-74
2021/12/11 02:29:28;;;;;;;;;11.00;6.00;;;;;6.93;66.44;101055.00;4998728;28;46199;-73
2021/12/11 02:32:18;;;;;;;;;7.50;5.25;;;;;6.93;66.10;101065.50;4985783;28;45310;-73
2021/12/11 02:34:53;;;;;;;;;6.75;5.75;;;;;6.90;66.34;101053.16;4996700;28;45388;-73
2021/12/11 02:37:22;;;;;;;;;5.75;3.25;;;;;6.83;66.50;101049.47;5004545;28;45563;-73
2021/12/11 02:39:54;;;;;;;;;7.00;5.25;;;;;6.92;66.38;101061.06;4997312;28;46021;-73
2021/12/11 02:42:26;;;;;;;;;5.50;3.00;;;;;6.90;66.38;101061.03;4997410;28;45353;-73
2021/12/11 02:45:07;;;;;;;;;6.00;5.00;;;;;6.90;66.37;101068.91;4981230;28;45413;-73
2021/12/11 02:47:38;;;;;;;;;9.50;5.75;;;;;6.88;66.43;101069.72;4997938;28;45251;-73
2021/12/11 02:50:17;;;;;;;;;7.75;5.00;;;;;6.80;66.26;101057.25;5002022;28;46643;-73
2021/12/11 02:52:59;;;;;;;;;11.25;4.50;;;;;6.88;66.20;101073.22;4977373;28;45320;-73
2021/12/11 02:55:24;;;;;;;;;3.75;3.75;;;;;6.88;66.50;101072.34;4976628;28;45520;-73
2021/12/11 02:57:52;;;;;;;;;5.25;5.25;;;;;6.87;66.62;101079.34;5000961;28;45450;-73
2021/12/11 03:00:45;;;;;;;;;5.25;4.50;;;;;6.86;66.59;101076.63;4987274;28;47770;-73
2021/12/11 03:03:11;;;;;;;;;8.00;5.75;;;;;6.84;66.59;101081.84;4997579;28;45363;-73
2021/12/11 03:05:46;;;;;;;;;6.25;5.00;;;;;6.83;66.56;101086.22;4998237;28;45457;-73
2021/12/11 03:08:15;;;;;;;;;9.75;5.25;;;;;6.86;66.68;101095.00;5005783;28;45808;-73
2021/12/11 03:10:41;;;;;;;;;11.00;7.50;;;;;6.82;66.60;101084.44;4981986;28;46770;-73
2021/12/11 03:13:06;;;;;;;;;10.00;5.75;;;;;6.87;66.74;101102.03;4998672;28;45449;-74
2021/12/11 03:15:32;;;;;;;;;12.75;5.25;;;;;6.78;66.60;101087.81;4967339;28;45476;-73
2021/12/11 03:17:58;;;;;;;;;4.50;4.50;;;;;6.87;66.46;101116.09;4983281;28;45471;-74
2021/12/11 03:20:23;;;;;;;;;7.00;3.50;;;;;6.85;66.56;101115.13;4998141;28;46846;-73
2021/12/11 03:22:49;;;;;;;;;9.00;2.50;;;;;6.83;66.53;101120.34;5003049;28;45349;-73
2021/12/11 03:25:17;;;;;;;;;3.00;2.00;;;;;6.83;66.64;101130.84;5017857;28;45369;-73
2021/12/11 03:27:43;;;;;;;;;4.50;4.50;;;;;6.85;66.58;101136.13;4986026;28;45559;-73
2021/12/11 03:30:13;;;;;;;;;8.50;2.50;;;;;6.85;66.70;101145.72;4997524;28;46399;-73
2021/12/11 03:32:38;;;;;;;;;3.50;2.00;;;;;6.81;66.46;101144.72;5001027;28;45539;-74
2021/12/11 03:35:04;;;;;;;;;5.25;1.75;;;;;6.82;66.82;101144.81;5012231;28;45839;-74
2021/12/11 03:37:30;;;;;;;;;5.00;2.00;;;;;6.82;66.73;101149.16;4997473;28;45278;-73
2021/12/11 03:39:55;;;;;;;;;5.50;1.50;;;;;6.82;66.66;101160.56;4996681;28;65184;-73
2021/12/11 03:42:30;;;;;;;;;5.25;2.00;;;;;6.81;66.70;101156.13;4978407;28;63036;-74
2021/12/11 03:44:56;;;;;;;;;4.50;1.25;;;;;6.65;66.81;101139.84;5000235;28;45366;-74
2021/12/11 03:47:30;;;;;;;;;3.25;2.00;;;;;6.81;66.76;101166.63;4997340;28;45548;-73
2021/12/11 03:49:56;;;;;;;;;5.00;2.00;;;;;6.82;66.71;101170.16;5007191;28;45598;-73
2021/12/11 03:52:21;;;;;;;;;4.50;2.00;;;;;6.74;66.83;101164.66;5000624;28;45247;-74
2021/12/11 03:54:50;;;;;;;;;1.75;1.75;;;;;6.83;66.92;101175.44;4984681;28;45311;-73
2021/12/11 03:57:17;;;;;;;;;3.25;1.75;;;;;6.82;66.85;101178.94;5000716;28;45534;-73
2021/12/11 03:59:45;;;;;;;;;6.00;2.00;;;;;6.73;67.00;101164.63;4996652;28;46808;-73
2021/12/11 04:02:11;;;;;;;;;2.00;2.00;;;;;6.78;66.96;101168.28;5003110;28;45336;-74
2021/12/11 04:04:42;;;;;;;;;2.25;1.75;;;;;6.75;66.80;101162.91;4979611;28;45243;-73
2021/12/11 04:07:09;;;;;;;;;4.00;4.00;;;;;6.75;66.75;101155.94;5003910;28;45511;-73
2021/12/11 04:09:35;;;;;;;;;3.25;2.00;;;;;6.81;66.64;101177.13;5003171;28;47563;-73
2021/12/11 04:12:00;;;;;;;;;6.00;2.00;;;;;6.80;66.92;101175.34;4995498;28;45477;-73
2021/12/11 04:14:29;;;;;;;;;4.00;4.00;;;;;6.70;66.81;101162.75;4997954;28;60947;-74
2021/12/11 04:16:55;;;;;;;;;7.00;2.00;;;;;6.64;66.90;101156.44;4996988;28;45576;-74
2021/12/11 04:19:21;;;;;;;;;3.75;3.75;;;;;6.74;66.75;101179.50;5007176;28;46870;-73
2021/12/11 04:21:46;;;;;;;;;5.25;2.00;;;;;6.70;66.97;101185.50;5008709;28;69055;-73
2021/12/11 04:24:12;;;;;;;;;7.00;4.00;;;;;6.67;66.88;101181.06;5015595;28;45325;-73
2021/12/11 04:26:38;;;;;;;;;6.50;2.75;;;;;6.70;66.85;101186.38;4979166;28;45310;-74
2021/12/11 04:29:04;;;;;;;;;5.25;3.25;;;;;6.69;67.08;101195.09;4979141;28;46865;-73
2021/12/11 04:31:30;;;;;;;;;3.25;2.00;;;;;6.54;66.86;101178.84;5001257;28;47374;-73
2021/12/11 04:33:57;;;;;;;;;6.75;5.00;;;;;6.64;67.11;101207.19;5005203;28;45507;-73
2021/12/11 04:36:27;;;;;;;;;7.00;2.00;;;;;6.62;67.05;101208.88;4993809;28;45386;-73
2021/12/11 04:38:53;;;;;;;;;10.25;2.25;;;;;6.60;66.99;101201.78;4997594;28;46509;-73
2021/12/11 04:41:29;;;;;;;;;4.75;3.00;;;;;6.60;67.05;101205.28;5019311;28;45333;-73
2021/12/11 04:43:55;;;;;;;;;9.00;2.75;;;;;6.57;66.80;101213.06;5012150;28;45328;-73
2021/12/11 04:46:20;;;;;;;;;5.00;2.00;;;;;6.59;67.22;101223.63;5015766;28;45543;-73
2021/12/11 05:06:55;;;;;;;;;8.75;5.00;;;;;6.46;66.94;101227.56;4996745;28;45522;-73
2021/12/11 05:12:07;;;;;;;;;13.00;4.00;;;;;6.43;67.37;101232.69;5016372;28;45309;-73
2021/12/11 05:14:33;;;;;;;;;5.00;4.00;;;;;6.30;67.54;101219.19;5024005;28;45584;-73
2021/12/11 05:16:58;;;;;;;;;5.50;2.25;;;;;6.29;67.42;101209.53;5025944;28;45510;-73
2021/12/11 05:19:24;;;;;;;;;5.00;2.50;;;;;6.41;67.55;101234.38;5016015;28;70550;-73
2021/12/11 05:21:49;;;;;;;;;10.00;3.25;;;;;6.38;67.44;101231.66;5030844;28;45483;-73
2021/12/11 05:24:16;;;;;;;;;12.75;3.50;;;;;6.39;67.36;101246.53;5037660;28;54695;-74
2021/12/11 05:26:42;;;;;;;;;8.75;2.25;;;;;6.29;67.38;101233.13;5023809;28;45219;-73
2021/12/11 05:29:07;;;;;;;;;3.75;2.25;;;;;6.25;67.06;101235.59;5019935;28;45969;-74
2021/12/11 05:31:33;;;;;;;;;11.25;3.25;;;;;6.31;67.44;101251.53;5018089;28;45483;-73
2021/12/11 05:33:58;;;;;;;;;9.00;3.50;;;;;6.20;67.61;101248.53;5001933;28;45298;-73
2021/12/11 05:36:27;;;;;;;;;5.00;4.00;;;;;6.22;67.63;101259.94;5001689;28;45609;-73
2021/12/11 05:38:52;;;;;;;;;2.25;2.25;;;;;6.28;67.45;101283.81;5021769;28;45792;-73
2021/12/11 05:41:19;;;;;;;;;4.75;1.25;;;;;6.23;67.64;101281.81;5025735;28;61849;-73
2021/12/11 05:43:45;;;;;;;;;3.00;1.00;;;;;6.19;67.44;101262.47;5019300;28;45445;-73
2021/12/11 05:46:11;;;;;;;;;5.00;3.50;;;;;6.20;67.42;101273.88;5022680;28;45491;-73
2021/12/11 05:48:36;;;;;;;;;13.25;2.75;;;;;6.24;67.22;101302.00;5018269;28;46707;-73
2021/12/11 05:51:03;;;;;;;;;7.75;2.00;;;;;6.22;67.30;101307.16;5018300;28;59866;-73
2021/12/11 05:53:31;;;;;;;;;2.00;2.00;;;;;6.19;67.58;101308.78;5019535;28;45329;-73
2021/12/11 05:55:57;;;;;;;;;1.75;1.50;;;;;6.18;67.58;101317.47;5024964;28;45503;-73
2021/12/11 05:58:46;;;;;;;;;2.50;0.75;;;;;6.06;67.43;101307.44;5038980;28;46103;-73
2021/12/11 06:01:16;;;;;;;;;3.75;1.25;;;;;6.07;67.69;101321.44;5032667;28;45225;-73
2021/12/11 06:03:41;;;;;;;;;6.25;2.00;;;;;6.14;67.64;101344.44;5002528;28;45509;-73
2021/12/11 06:06:07;;;;;;;;;8.50;2.75;;;;;6.12;67.71;101336.50;5019145;28;45512;-73
2021/12/11 06:08:32;;;;;;;;;5.00;2.75;;;;;5.99;67.71;101323.78;5023195;28;46705;-73
2021/12/11 06:10:58;;;;;;;;;4.25;2.00;;;;;6.02;67.91;101334.41;5025644;28;45448;-73
2021/12/11 06:13:25;;;;;;;;;1.75;1.50;;;;;6.10;67.91;101359.16;5017940;28;45472;-73
2021/12/11 06:15:52;;;;;;;;;8.25;4.00;;;;;6.07;67.72;101353.78;5018695;28;45575;-73
2021/12/11 06:18:19;;;;;;;;;5.50;3.50;;;;;6.00;67.90;101331.69;5017253;28;46903;-73
2021/12/11 06:20:44;;;;;;;;;3.50;3.50;;;;;6.10;67.87;101353.03;5020082;28;45354;-73
2021/12/11 06:23:10;;;;;;;;;8.50;4.50;;;;;6.09;67.71;101353.84;5006218;28;45278;-73
2021/12/11 06:25:35;;;;;;;;;5.25;4.75;;;;;5.97;67.51;101342.09;5004424;28;61281;-73
2021/12/11 06:28:02;;;;;;;;;6.25;2.25;;;;;5.94;67.68;101347.19;5018299;28;55226;-73
2021/12/11 06:30:28;;;;;;;;;8.00;4.00;;;;;6.01;67.70;101356.16;5010685;28;45363;-73
2021/12/11 06:32:53;;;;;;;;;8.50;5.00;;;;;5.93;67.79;101355.91;5019599;28;45369;-73
2021/12/11 06:35:29;;;;;;;;;9.75;5.25;;;;;6.01;67.75;101362.31;4999387;28;45513;-73
2021/12/11 06:37:55;;;;;;;;;8.75;5.50;;;;;5.97;67.74;101355.19;5017380;28;45655;-73
2021/12/11 06:40:20;;;;;;;;;6.50;3.75;;;;;5.96;67.56;101358.63;5166683;22;45610;-73
2021/12/11 06:42:46;;;;;;;;;11.00;5.00;;;;;5.90;67.74;101365.31;5017666;28;45419;-73
2021/12/11 06:45:11;;;;;;;;;9.00;4.50;;;;;5.86;67.85;101366.03;5002466;28;46207;-73
2021/12/11 06:47:38;;;;;;;;;9.00;5.75;;;;;5.96;68.12;101389.19;5009894;28;47896;-73
2021/12/11 06:50:04;;;;;;;;;5.25;5.00;;;;;5.85;67.93;101374.72;5017923;28;45333;-73
2021/12/11 06:52:29;;;;;;;;;9.50;5.00;;;;;5.91;67.82;101396.91;5018397;28;45483;-73
2021/12/11 06:54:54;;;;;;;;;8.50;8.50;;;;;5.91;67.96;101401.19;5000165;28;56581;-73
2021/12/11 06:57:20;;;;;;;;;13.25;6.00;;;;;5.79;67.64;101392.00;5000367;28;52261;-73
2021/12/11 06:59:47;;;;;;;;;8.00;5.00;;;;;5.88;67.62;101409.81;4996038;28;64347;-73
2021/12/11 07:02:12;;;;;;;;;9.50;7.00;;;;;5.79;67.84;101404.22;5003709;28;45519;-74
2021/12/11 07:04:38;;;;;;;;;8.00;4.50;;;;;5.70;68.05;101391.66;5023516;28;45451;-74
2021/12/11 07:07:03;;;;;;;;;6.25;4.50;;;;;5.87;67.96;101426.38;5006944;28;45929;-73
2021/12/11 07:09:29;;;;;;;;;8.00;5.00;;;;;5.76;67.94;101425.97;5009175;28;51203;-73
2021/12/11 07:11:55;;;;;;;;;5.75;4.50;;;;;5.86;67.92;101432.47;5017335;28;45319;-73
2021/12/11 07:14:21;;;;;;;;;1.75;1.75;;;;;5.84;68.26;101436.75;5018386;28;45309;-73
2021/12/11 07:16:47;;;;;;;;;4.75;2.50;;;;;5.86;68.23;101457.75;5018051;28;46678;-73
2021/12/11 07:19:12;;;;;;;;;10.75;4.25;;;;;5.84;67.83;101454.19;5017131;28;45317;-73
2021/12/11 07:21:38;;;;;;;;;12.25;10.00;;;;;5.82;67.95;101456.75;5010812;28;45397;-73
2021/12/11 07:24:04;;;;;;;;;10.50;4.75;;;;;5.68;68.12;101440.47;5021801;28;45260;-73
2021/12/11 07:26:34;;;;;;;;;26.50;10.50;;;;;5.81;67.93;101462.84;4984880;28;46745;-73
2021/12/11 07:29:10;;;;;;;;;6.25;5.00;;;;;5.78;68.15;101471.47;4976382;28;45497;-73
2021/12/11 07:31:36;;;;;;;;;9.50;7.00;;;;;5.79;67.76;101475.84;5014535;28;45202;-73
2021/12/11 07:34:02;;;;;;;;;8.00;5.75;;;;;5.77;67.96;101461.81;5009500;28;45404;-73
2021/12/11 07:36:28;;;;;;;;;8.25;6.00;;;;;5.66;68.28;101447.38;5018436;28;47504;-73
2021/12/11 07:38:54;;;;;;;;;14.50;6.00;;;;;5.75;67.93;101475.66;5016865;28;45347;-74
2021/12/11 07:41:20;;;;;;;;;10.75;9.50;;;;;5.72;68.13;101480.81;5000673;28;45225;-73
2021/12/11 07:43:45;;;;;;;;;12.75;9.75;;;;;5.76;68.45;101491.47;4991902;28;45571;-73
2021/12/11 07:46:15;;;;;;;;;15.75;13.50;;;;;5.71;68.16;101482.53;4997235;28;46283;-73
2021/12/11 07:48:42;;;;;;;;;20.50;14.75;;;;;5.87;68.31;101498.88;4977161;28;45437;-73
2021/12/11 07:51:08;;;;;;;;;16.00;10.50;;;;;5.89;68.35;101499.81;4994468;28;45261;-73
2021/12/11 07:53:33;;;;;;;;;21.50;13.75;;;;;5.91;68.36;101506.00;4978707;28;45224;-73
2021/12/11 07:55:58;;;;;;;;;15.75;14.25;;;;;5.77;68.41;101485.41;4995207;28;58829;-73
2021/12/11 07:58:24;;;;;;;;;15.00;12.00;;;;;5.92;68.35;101516.63;4993715;28;45852;-73
2021/12/11 08:00:50;;;;;;;;;16.25;15.25;;;;;5.90;68.37;101512.97;4997841;28;45257;-73
2021/12/11 08:03:15;;;;;;;;;14.25;12.75;;;;;5.90;68.14;101520.84;4994885;28;53302;-73
2021/12/11 08:05:42;;;;;;;;;15.25;11.75;;;;;5.83;68.08;101512.69;4995160;28;46427;-73
2021/12/11 08:08:10;;;;;;;;;18.00;12.75;;;;;5.80;68.09;101516.06;4972592;28;45554;-73
2021/12/11 08:10:35;;;;;;;;;15.75;12.00;;;;;5.90;68.29;101544.44;4968687;28;45417;-73
2021/12/11 08:13:01;;;;;;;;;21.00;14.75;;;;;5.88;68.20;101545.22;4995452;28;45441;-73
2021/12/11 08:15:26;;;;;;;;;13.50;13.00;;;;;5.90;68.08;101543.53;4996590;28;47252;-73
2021/12/11 08:17:54;;;;;;;;;22.25;12.75;;;;;5.88;68.18;101545.22;4988713;28;45369;-73
2021/12/11 08:20:23;;;;;;;;;20.75;13.00;;;;;5.91;68.47;101558.44;4968206;28;45518;-73
2021/12/11 08:22:50;;;;;;;;;20.25;16.75;;;;;5.92;68.24;101555.94;5000790;28;45424;-73
2021/12/11 08:25:16;;;;;;;;;31.50;26.75;;;;;5.95;68.35;101544.66;4984578;28;47428;-72
2021/12/11 08:27:42;;;;;;;;;35.75;27.75;;;;;6.07;68.54;101562.59;4993772;28;45508;-72
2021/12/11 08:30:08;;;;;;;;;32.50;22.75;;;;;6.08;68.45;101546.97;4997682;28;45450;-72
2021/12/11 08:32:34;;;;;;;;;23.75;19.50;;;;;6.21;68.40;101557.09;4997162;28;45426;-72
2021/12/11 08:34:59;;;;;;;;;27.00;20.00;;;;;6.22;68.33;101540.53;4994981;28;45669;-72
2021/12/11 08:37:25;;;;;;;;;21.75;19.00;;;;;6.30;68.41;101539.13;4994915;28;45412;-72
2021/12/11 08:39:51;;;;;;;;;21.75;17.50;;;;;6.48;68.35;101552.06;5002471;28;45577;-72
2021/12/11 08:42:18;;;;;;;;;27.50;19.00;;;;;6.59;68.51;101556.81;4971907;28;45590;-71
2021/12/11 08:44:50;;;;;;;;;21.00;15.25;;;;;6.66;68.22;101545.72;4984200;28;45500;-72
2021/12/11 08:47:16;;;;;;;;;22.25;19.50;;;;;6.72;68.43;101557.38;4992128;28;45718;-73
2021/12/11 08:49:41;;;;;;;;;25.50;17.25;;;;;6.72;68.62;101548.59;4990038;28;45586;-73
2021/12/11 08:52:22;;;;;;;;;19.00;14.75;;;;;6.92;68.58;101575.56;4992658;28;45684;-73
2021/12/11 08:54:48;;;;;;;;;34.25;18.25;;;;;6.91;68.51;101565.91;5011993;28;46966;-73
2021/12/11 08:57:17;;;;;;;;;23.25;17.25;;;;;7.00;68.71;101572.41;5013385;28;45532;-76
2021/12/11 08:59:45;;;;;;;;;17.75;15.75;;;;;7.06;68.12;101588.41;4982016;28;45475;-73
2021/12/11 09:02:12;;;;;;;;;28.00;18.00;;;;;7.11;68.39;101593.81;5014464;28;45541;-73
2021/12/11 09:04:43;;;;;;;;;16.00;10.00;;;;;7.16;68.19;101586.13;5011429;28;46700;-74
2021/12/11 09:07:16;;;;;;;;;15.75;10.50;;;;;7.24;68.16;101595.16;5015175;28;45440;-72
2021/12/11 09:09:52;;;;;;;;;13.00;6.75;;;;;7.30;68.03;101575.28;5012370;28;45557;-72
2021/12/11 09:12:28;;;;;;;;;10.25;10.25;;;;;7.41;67.68;101594.06;5014632;28;45800;-72
2021/12/11 09:15:14;;;;;;;;;14.50;8.25;;;;;7.49;68.04;101596.94;5015628;28;46619;-73
2021/12/11 09:17:59;;;;;;;;;9.25;6.50;;;;;7.56;67.44;101617.34;5010866;28;45847;-73
2021/12/11 09:20:37;;;;;;;;;10.00;7.00;;;;;7.62;67.30;101617.59;4993811;28;45429;-74
2021/12/11 09:23:12;;;;;;;;;10.75;7.00;;;;;7.69;67.25;101622.22;5016441;28;45351;-72
2021/12/11 09:25:53;;;;;;;;;7.00;6.00;;;;;7.74;67.29;101625.91;5009551;28;46834;-75
2021/12/11 09:28:32;;;;;;;;;10.25;6.50;;;;;7.83;66.97;101630.59;4979282;28;45375;-73
2021/12/11 09:31:00;;;;;;;;;6.50;6.00;;;;;7.77;66.79;101620.72;5008944;28;45336;-73
2021/12/11 09:33:32;;;;;;;;;7.75;5.25;;;;;7.84;66.72;101625.38;5016709;28;46997;-73
2021/12/11 09:36:00;;;;;;;;;8.25;5.00;;;;;7.92;66.47;101636.16;5015399;28;47604;-72
2021/12/11 09:38:29;;;;;;;;;7.00;5.75;;;;;8.02;66.72;101637.34;4983693;28;45544;-73
2021/12/11 09:40:55;;;;;;;;;12.50;6.25;;;;;8.07;66.14;101656.81;5001254;28;45811;-73
2021/12/11 09:43:42;;;;;;;;;10.50;5.00;;;;;8.08;66.36;101651.59;5013205;28;45340;-73
2021/12/11 09:46:10;;;;;;;;;5.00;4.50;;;;;8.00;66.12;101626.78;5013963;28;45930;-73
2021/12/11 09:48:37;;;;;;;;;7.75;5.25;;;;;8.07;66.03;101638.41;5013215;28;45516;-73
2021/12/11 09:51:04;;;;;;;;;8.25;5.00;;;;;8.20;66.07;101652.84;5012889;28;45432;-73
2021/12/11 09:53:35;;;;;;;;;9.00;4.50;;;;;8.17;65.98;101634.38;5004241;28;45460;-73
2021/12/11 09:56:01;;;;;;;;;5.75;5.00;;;;;8.28;66.21;101652.28;4997343;28;47398;-72
2021/12/11 09:58:31;;;;;;;;;15.00;7.75;;;;;8.34;65.82;101668.28;5004063;28;45534;-73
2021/12/11 10:01:03;;;;;;;;;8.25;5.75;;;;;8.36;65.86;101668.34;5015017;28;45375;-73
2021/12/11 10:03:30;;;;;;;;;6.50;5.75;;;;;8.35;65.81;101662.16;5014740;28;45439;-73
2021/12/11 10:06:10;;;;;;;;;7.25;5.00;;;;;8.41;65.97;101666.78;4997587;28;47329;-72
2021/12/11 10:08:38;;;;;;;;;8.00;6.00;;;;;8.51;65.51;101675.88;5006218;28;45450;-73
2021/12/11 10:11:10;;;;;;;;;9.75;7.75;;;;;8.56;65.81;101687.44;5016214;28;45448;-73
2021/12/11 10:13:42;;;;;;;;;10.25;6.50;;;;;8.49;65.67;101665.28;5017904;28;45664;-72
2021/12/11 10:16:08;;;;;;;;;9.00;6.25;;;;;8.57;65.57;101689.22;5016651;28;46880;-73
2021/12/11 10:18:33;;;;;;;;;10.50;7.50;;;;;8.50;65.54;101667.06;5017206;28;45155;-73
2021/12/11 10:21:25;;;;;;;;;6.00;6.00;;;;;8.60;65.66;101682.34;4999911;28;45470;-73
2021/12/11 10:23:53;;;;;;;;;8.00;5.00;;;;;8.59;65.25;101667.38;5016129;28;45380;-73
2021/12/11 10:26:19;;;;;;;;;5.00;5.00;;;;;8.72;65.31;101684.47;5017637;28;47455;-73
2021/12/11 10:28:47;;;;;;;;;7.00;4.50;;;;;8.75;65.30;101684.56;5017488;28;45377;-73
2021/12/11 10:31:19;;;;;;;;;6.00;2.00;;;;;8.73;65.03;101670.44;5000639;28;45357;-73
2021/12/11 10:33:44;;;;;;;;;9.00;3.75;;;;;8.83;65.07;101680.44;5018378;28;45632;-73
2021/12/11 10:36:12;;;;;;;;;3.75;3.75;;;;;8.79;64.78;101665.41;5017712;28;46558;-73
2021/12/11 10:38:37;;;;;;;;;8.00;2.75;;;;;8.95;64.70;101695.75;4999438;28;45817;-72
2021/12/11 10:41:04;;;;;;;;;5.00;3.00;;;;;8.98;64.50;101693.19;5000852;28;45412;-73
2021/12/11 10:43:33;;;;;;;;;9.33;3.00;;;;;9.00;64.55;101699.41;4997273;28;45607;-73
2021/12/11 10:45:58;;;;;;;;;7.00;3.00;;;;;9.04;64.26;101690.75;4996895;28;45630;-73
2021/12/11 10:48:27;;;;;;;;;7.67;5.00;;;;;9.06;64.24;101686.44;4963285;28;45454;-73
2021/12/11 10:51:18;;;;;;;;;6.67;3.00;;;;;9.13;64.28;101682.25;4997428;28;45543;-73
2021/12/11 10:53:46;;;;;;;;;2.00;2.00;;;;;9.22;64.02;101694.81;4990810;28;45314;-73
2021/12/11 10:56:13;;;;;;;;;4.33;3.00;;;;;9.25;63.93;101692.25;4997109;28;47570;-73
2021/12/11 10:58:42;;;;;;;;;4.33;3.00;;;;;9.24;64.21;101680.81;4997174;28;45496;-73
2021/12/11 11:01:16;;;;;;;;;6.33;3.33;;;;;9.26;63.96;101681.75;4996633;28;45542;-73
2021/12/11 11:03:45;;;;;;;;;5.50;5.00;;;;;9.29;63.65;101687.13;4997568;28;45434;-73
2021/12/11 11:06:11;;;;;;;;;6.67;2.33;;;;;9.39;63.75;101685.66;4996350;28;46315;-73
2021/12/11 11:08:36;;;;;;;;;3.00;3.00;;;;;9.35;63.69;101678.50;4997233;28;45539;-73
2021/12/11 11:11:07;;;;;;;;;8.00;4.00;;;;;9.38;63.66;101673.34;4981804;28;59831;-74
2021/12/11 11:13:32;;;;;;;;;8.25;6.00;;;;;9.50;63.50;101702.69;4979958;28;45579;-73
2021/12/11 11:15:58;;;;;;;;;5.33;3.00;;;;;9.49;63.34;101686.81;4998113;28;56441;-73
2021/12/11 11:18:25;;;;;;;;;8.33;3.00;;;;;9.53;63.64;101692.19;4998065;28;45417;-73
2021/12/11 11:21:00;;;;;;;;;9.00;4.00;;;;;9.46;63.87;101671.78;4998012;28;45333;-73
2021/12/11 11:23:26;;;;;;;;;4.00;4.00;;;;;9.58;63.57;101685.31;4998530;28;45420;-73
2021/12/11 11:25:53;;;;;;;;;8.67;6.00;;;;;9.57;63.43;101678.25;4998150;28;46718;-73
2021/12/11 11:28:21;;;;;;;;;3.00;3.00;;;;;9.71;63.15;101687.47;4997968;28;45439;-73
2021/12/11 11:31:08;;;;;;;;;6.00;2.00;;;;;9.81;63.10;101680.72;4984325;28;45285;-73
2021/12/11 11:33:33;;;;;;;;;4.00;3.00;;;;;9.81;63.17;101672.81;4995544;28;45445;-73
2021/12/11 11:36:05;;;;;;;;;3.00;1.67;;;;;9.87;62.90;101693.19;4975778;28;46067;-73
2021/12/11 11:38:32;;;;;;;;;6.00;3.67;;;;;9.86;63.03;101694.03;4995621;28;45562;-71
2021/12/11 11:41:01;;;;;;;;;4.50;2.75;;;;;9.75;62.90;101675.28;5005656;28;45509;-72
2021/12/11 11:43:27;;;;;;;;;11.00;4.00;;;;;9.74;62.11;101675.22;5012712;28;45605;-72
2021/12/11 11:45:53;;;;;;;;;8.00;3.00;;;;;9.82;62.97;101698.31;4996170;28;47453;-73
2021/12/11 11:48:28;;;;;;;;;9.00;6.00;;;;;9.76;62.99;101681.44;5013749;28;45436;-73
2021/12/11 11:50:54;;;;;;;;;8.00;3.00;;;;;9.79;62.95;101694.69;5012490;28;45469;-73
2021/12/11 11:53:24;;;;;;;;;4.00;4.00;;;;;9.81;62.19;101693.00;4996019;28;45551;-74
2021/12/11 11:55:52;;;;;;;;;10.25;3.00;;;;;9.79;62.37;101681.50;5012801;28;46479;-73
2021/12/11 11:58:17;;;;;;;;;4.67;3.00;;;;;9.91;62.43;101700.34;4994516;28;45539;-73
2021/12/11 12:00:49;;;;;;;;;7.33;3.00;;;;;9.96;62.71;101712.81;5013033;28;45526;-73